Time;durP1;ratioP1;P1;durP2;ratioP2;P2;SDS_P1;SDS_P2;PMS_P1;PMS_P2;Temp;Humidity;BMP_temperature;BMP_pressure;BME280_temperature;BME280_humidity;BME280_pressure;Samples;Min_cycle;Max_cycle;Signal;HPM_P1;HPM_P2
2022/05/03 00:02:07;;;;;;;3.57;1.80;;;21.30;35.80;;;;;;5055664;28;20474;-79
2022/05/03 00:04:40;;;;;;;4.40;1.80;;;21.30;36.00;;;;;;5059794;28;20470;-79
2022/05/03 00:07:13;;;;;;;3.37;1.87;;;21.20;35.90;;;;;;5059941;28;20678;-79
2022/05/03 00:09:46;;;;;;;3.60;1.80;;;21.20;36.00;;;;;;5059862;28;20466;-79
2022/05/03 00:12:15;;;;;;;2.20;1.80;;;21.20;36.00;;;;;;5059626;28;20494;-79
2022/05/03 00:14:45;;;;;;;1.77;1.67;;;21.10;36.00;;;;;;5059573;28;20478;-79
2022/05/03 00:17:14;;;;;;;1.90;1.40;;;21.10;36.00;;;;;;5058132;28;20545;-80
2022/05/03 00:19:42;;;;;;;4.03;1.63;;;21.10;35.90;;;;;;5058647;28;20463;-80
2022/05/03 00:22:11;;;;;;;1.80;1.70;;;21.10;36.00;;;;;;5059228;28;20464;-79
2022/05/03 00:24:39;;;;;;;2.10;1.63;;;21.00;36.00;;;;;;5058976;28;20442;-79
2022/05/03 00:27:08;;;;;;;2.60;2.07;;;21.00;36.10;;;;;;5058866;28;20443;-79
2022/05/03 00:29:36;;;;;;;2.93;2.00;;;21.00;36.10;;;;;;5058535;28;20470;-80
2022/05/03 00:32:05;;;;;;;2.03;1.83;;;20.90;36.20;;;;;;5061254;28;20521;-79
2022/05/03 00:34:33;;;;;;;2.27;1.70;;;20.90;36.20;;;;;;5059546;28;20485;-79
2022/05/03 00:37:01;;;;;;;3.20;1.57;;;20.90;36.20;;;;;;5060486;28;20505;-79
2022/05/03 00:39:33;;;;;;;3.47;1.77;;;20.90;36.20;;;;;;5050827;28;20454;-80
2022/05/03 00:42:04;;;;;;;2.83;1.90;;;20.90;36.30;;;;;;5059144;28;20560;-80
2022/05/03 00:44:58;;;;;;;2.57;1.40;;;20.80;36.20;;;;;;5045202;28;20474;-79
2022/05/03 00:47:42;;;;;;;1.80;1.70;;;20.80;36.20;;;;;;5058457;28;20438;-80
2022/05/03 00:50:11;;;;;;;1.60;1.50;;;20.80;36.40;;;;;;5054984;28;20474;-79
2022/05/03 00:52:42;;;;;;;1.10;1.10;;;20.80;36.40;;;;;;5058980;28;20493;-79
2022/05/03 00:55:39;;;;;;;2.53;1.80;;;20.70;36.30;;;;;;5058611;28;20449;-78
2022/05/03 00:58:17;;;;;;;1.60;1.50;;;20.70;36.40;;;;;;5053628;28;20480;-79
2022/05/03 01:00:53;;;;;;;2.50;1.60;;;20.70;36.50;;;;;;5058610;28;20517;-80
2022/05/03 01:03:24;;;;;;;1.83;1.40;;;20.60;36.50;;;;;;5055023;28;20528;-79
2022/05/03 01:06:01;;;;;;;1.60;1.50;;;20.60;36.40;;;;;;5058062;28;20493;-79
2022/05/03 01:08:37;;;;;;;2.77;1.90;;;20.60;36.60;;;;;;5058686;28;20453;-80
2022/05/03 01:11:17;;;;;;;4.43;1.87;;;20.60;36.60;;;;;;5056835;28;20545;-79
2022/05/03 01:13:48;;;;;;;2.90;1.70;;;20.60;36.50;;;;;;5058571;28;20501;-80
2022/05/03 01:16:25;;;;;;;3.10;1.70;;;20.50;36.60;;;;;;5058808;28;20518;-79
2022/05/03 01:18:55;;;;;;;3.23;1.50;;;20.50;36.60;;;;;;5057892;28;20474;-80
2022/05/03 01:21:31;;;;;;;2.60;1.60;;;20.50;36.70;;;;;;5058846;28;20486;-80
2022/05/03 01:24:04;;;;;;;1.60;1.50;;;20.40;36.60;;;;;;5057238;28;20494;-79
2022/05/03 01:27:01;;;;;;;3.17;1.77;;;20.40;36.70;;;;;;5058038;28;20471;-80
2022/05/03 01:29:31;;;;;;;2.93;1.40;;;20.40;36.80;;;;;;5057891;28;20479;-80
2022/05/03 01:32:00;;;;;;;3.07;2.00;;;20.30;36.70;;;;;;5058871;28;20450;-81
2022/05/03 01:34:29;;;;;;;2.00;1.67;;;20.30;36.70;;;;;;5058874;28;20477;-81
2022/05/03 01:37:35;;;;;;;1.60;1.50;;;20.30;36.80;;;;;;5058109;28;20466;-80
2022/05/03 01:40:05;;;;;;;1.60;1.47;;;20.30;36.80;;;;;;5032804;28;20478;-81
2022/05/03 01:42:56;;;;;;;1.60;1.50;;;20.20;36.80;;;;;;5059442;28;20456;-80
2022/05/03 01:45:28;;;;;;;1.60;1.50;;;20.20;37.00;;;;;;5056613;28;20473;-80
2022/05/03 01:48:01;;;;;;;2.20;1.50;;;20.20;37.00;;;;;;5059137;28;20510;-82
2022/05/03 01:50:30;;;;;;;1.60;1.50;;;20.10;36.90;;;;;;5058969;28;20475;-81
2022/05/03 01:53:11;;;;;;;1.30;1.20;;;20.10;37.00;;;;;;5059201;28;20526;-81
2022/05/03 01:55:53;;;;;;;4.13;1.53;;;20.20;37.00;;;;;;5057750;28;20478;-80
2022/05/03 01:58:24;;;;;;;1.60;1.50;;;20.10;36.90;;;;;;5058891;28;20561;-80
2022/05/03 02:00:59;;;;;;;1.53;1.43;;;20.00;37.00;;;;;;5059626;28;20522;-80
2022/05/03 02:03:30;;;;;;;3.10;1.47;;;20.00;37.00;;;;;;5059855;28;20473;-79
2022/05/03 02:06:01;;;;;;;1.57;1.43;;;20.00;37.10;;;;;;5059757;28;20822;-82
2022/05/03 02:08:33;;;;;;;1.83;1.50;;;19.90;37.20;;;;;;5058947;28;20953;-81
2022/05/03 02:11:15;;;;;;;1.50;1.40;;;19.90;37.20;;;;;;5058718;28;20470;-81
2022/05/03 02:16:58;;;;;;;2.00;1.67;;;19.90;37.30;;;;;;5058941;28;20494;-81
2022/05/03 02:19:44;;;;;;;1.73;1.63;;;19.80;37.20;;;;;;5059123;28;20474;-81
2022/05/03 02:22:32;;;;;;;2.40;1.50;;;19.80;37.30;;;;;;5060863;28;20470;-82
2022/05/03 02:25:03;;;;;;;1.70;1.60;;;19.80;37.30;;;;;;5060974;28;21107;-80
2022/05/03 02:27:32;;;;;;;2.37;1.70;;;19.70;37.30;;;;;;5062649;28;20439;-80
2022/05/03 02:30:00;;;;;;;2.30;2.10;;;19.80;37.40;;;;;;5062715;28;20529;-81
2022/05/03 02:32:34;;;;;;;1.87;1.50;;;19.70;37.20;;;;;;5062176;28;20447;-83
2022/05/03 02:35:04;;;;;;;1.50;1.40;;;19.70;37.40;;;;;;5064601;28;20438;-81
2022/05/03 02:37:35;;;;;;;2.97;1.50;;;19.70;37.30;;;;;;5064303;28;20460;-82
2022/05/03 02:40:07;;;;;;;1.63;1.27;;;19.60;37.40;;;;;;5062993;28;20467;-82
2022/05/03 02:42:35;;;;;;;3.57;1.60;;;19.60;37.30;;;;;;5062879;28;20419;-80
2022/05/03 02:45:04;;;;;;;3.20;1.80;;;19.60;37.60;;;;;;5061239;28;20506;-80
2022/05/03 02:47:41;;;;;;;1.83;1.73;;;19.60;37.50;;;;;;5062385;28;20431;-81
2022/05/03 02:50:10;;;;;;;1.50;1.40;;;19.60;37.50;;;;;;5062045;28;20477;-80
2022/05/03 02:52:43;;;;;;;1.40;1.30;;;19.50;37.40;;;;;;5061752;28;20481;-80
2022/05/03 02:55:20;;;;;;;1.50;1.40;;;19.50;37.50;;;;;;5062019;28;20442;-81
2022/05/03 02:57:54;;;;;;;1.57;1.27;;;19.50;37.60;;;;;;5061355;28;20464;-81
2022/05/03 03:03:21;;;;;;;1.37;1.27;;;19.50;37.60;;;;;;5060723;28;20550;-80
2022/05/03 03:05:50;;;;;;;3.23;1.60;;;19.40;37.80;;;;;;5062354;28;20434;-81
2022/05/03 03:08:20;;;;;;;2.60;1.47;;;19.40;37.60;;;;;;5061819;28;20497;-80
2022/05/03 03:10:51;;;;;;;1.57;1.47;;;19.40;37.70;;;;;;5061585;28;20473;-80
2022/05/03 03:13:25;;;;;;;2.03;1.47;;;19.40;37.80;;;;;;5061956;28;20470;-80
2022/05/03 03:15:54;;;;;;;1.70;1.60;;;19.40;37.60;;;;;;5061604;28;20469;-81
2022/05/03 03:18:24;;;;;;;1.73;1.30;;;19.30;37.70;;;;;;5060217;28;20467;-81
2022/05/03 03:20:55;;;;;;;1.73;1.63;;;19.30;37.80;;;;;;5061444;28;20434;-81
2022/05/03 03:23:28;;;;;;;1.90;1.80;;;19.30;37.80;;;;;;5061651;28;20470;-81
2022/05/03 03:25:56;;;;;;;2.23;2.00;;;19.30;37.80;;;;;;5060861;28;20529;-81
2022/05/03 03:28:24;;;;;;;1.73;1.63;;;19.30;37.80;;;;;;5061100;28;20469;-81
2022/05/03 03:30:52;;;;;;;1.70;1.60;;;19.30;37.80;;;;;;5061404;28;20561;-82
2022/05/03 03:33:20;;;;;;;1.63;1.53;;;19.20;37.90;;;;;;5061256;28;20470;-81
2022/05/03 03:35:50;;;;;;;1.70;1.60;;;19.20;37.90;;;;;;5060399;28;20455;-80
2022/05/03 03:38:18;;;;;;;3.27;1.53;;;19.20;37.90;;;;;;5061154;28;20864;-80
2022/05/03 03:40:46;;;;;;;1.80;1.70;;;19.20;38.00;;;;;;5060517;28;20441;-80
2022/05/03 03:43:15;;;;;;;1.67;1.57;;;19.10;37.80;;;;;;5062755;28;20501;-81
2022/05/03 03:45:43;;;;;;;1.97;1.87;;;19.20;38.00;;;;;;5060915;28;20470;-81
2022/05/03 03:48:11;;;;;;;1.90;1.80;;;19.10;37.80;;;;;;5061164;28;20446;-81
2022/05/03 03:50:39;;;;;;;1.60;1.50;;;19.10;38.00;;;;;;5059681;28;20502;-81
2022/05/03 03:53:08;;;;;;;1.63;1.53;;;19.10;38.00;;;;;;5060756;28;20507;-81
2022/05/03 03:55:36;;;;;;;1.90;1.60;;;19.10;37.90;;;;;;5060668;28;20481;-81
2022/05/03 03:58:04;;;;;;;7.90;1.60;;;19.10;38.10;;;;;;5060540;28;20471;-80
2022/05/03 04:00:32;;;;;;;1.70;1.60;;;19.10;38.00;;;;;;5060824;28;20467;-80
2022/05/03 04:03:01;;;;;;;1.43;1.33;;;19.10;37.90;;;;;;5060450;28;20454;-81
2022/05/03 04:05:29;;;;;;;1.80;1.70;;;19.00;37.80;;;;;;5060889;28;20450;-81
2022/05/03 04:07:57;;;;;;;1.80;1.53;;;19.00;38.00;;;;;;5060166;28;20481;-80
2022/05/03 04:10:27;;;;;;;1.80;1.57;;;19.00;37.90;;;;;;5060345;28;20462;-81
2022/05/03 04:12:55;;;;;;;1.70;1.60;;;19.00;37.80;;;;;;5060908;28;20442;-80
2022/05/03 04:15:23;;;;;;;1.80;1.70;;;19.00;37.90;;;;;;5060687;28;20450;-80
2022/05/03 04:17:51;;;;;;;1.70;1.57;;;19.00;38.00;;;;;;5060535;28;20443;-80
2022/05/03 04:20:19;;;;;;;3.03;1.40;;;19.00;38.10;;;;;;5060568;28;20553;-80
2022/05/03 04:22:47;;;;;;;1.53;1.43;;;18.90;38.00;;;;;;5061655;28;20443;-80
2022/05/03 04:25:15;;;;;;;1.50;1.40;;;19.00;38.10;;;;;;5059134;28;20471;-80
2022/05/03 04:27:45;;;;;;;1.40;1.30;;;18.90;38.70;;;;;;5060522;28;20470;-81
2022/05/03 04:30:14;;;;;;;2.07;1.80;;;18.90;38.20;;;;;;5060103;28;20462;-80
2022/05/03 04:32:43;;;;;;;1.63;1.40;;;18.90;38.20;;;;;;5060218;28;20498;-81
2022/05/03 04:35:11;;;;;;;1.73;1.63;;;18.90;38.30;;;;;;5059711;28;20446;-81
2022/05/03 04:37:39;;;;;;;2.33;1.60;;;18.90;38.00;;;;;;5059990;28;20442;-80
2022/05/03 04:40:09;;;;;;;1.70;1.40;;;18.90;38.20;;;;;;5059782;28;20498;-81
2022/05/03 04:42:44;;;;;;;1.50;1.50;;;18.90;38.20;;;;;;5058987;28;20454;-80
2022/05/03 04:45:12;;;;;;;1.57;1.47;;;18.90;38.20;;;;;;5059186;28;20442;-80
2022/05/03 04:47:40;;;;;;;1.50;1.40;;;18.90;38.30;;;;;;5059165;28;20516;-81
2022/05/03 04:50:11;;;;;;;1.47;1.37;;;18.90;38.10;;;;;;5059237;28;20474;-80
2022/05/03 04:52:40;;;;;;;1.50;1.40;;;18.90;38.20;;;;;;5059305;28;20481;-80
2022/05/03 04:55:08;;;;;;;1.60;1.50;;;18.90;38.20;;;;;;5059868;28;20451;-80
2022/05/03 04:57:37;;;;;;;1.50;1.40;;;18.90;38.30;;;;;;5057864;28;20529;-80
2022/05/03 05:00:08;;;;;;;1.47;1.37;;;18.90;38.30;;;;;;5058643;28;20504;-79
2022/05/03 05:02:36;;;;;;;1.70;1.60;;;18.90;38.30;;;;;;5058522;28;20478;-80
2022/05/03 05:05:05;;;;;;;1.47;1.37;;;19.00;38.20;;;;;;5059378;28;20488;-79
2022/05/03 05:07:33;;;;;;;1.60;1.50;;;19.00;38.20;;;;;;5060207;28;20446;-81
2022/05/03 05:12:47;;;;;;;1.53;1.43;;;19.00;38.10;;;;;;5058744;28;20553;-80
2022/05/03 05:15:16;;;;;;;1.40;1.40;;;19.00;38.10;;;;;;5058043;28;20489;-80
2022/05/03 05:17:44;;;;;;;1.47;1.37;;;19.00;38.30;;;;;;5059454;28;20446;-81
2022/05/03 05:20:12;;;;;;;1.47;1.30;;;19.00;38.30;;;;;;5059647;28;20699;-81
2022/05/03 05:22:42;;;;;;;1.40;1.30;;;19.10;38.40;;;;;;5059162;28;20510;-81
2022/05/03 05:25:30;;;;;;;1.30;1.20;;;19.10;38.20;;;;;;5059189;28;20445;-81
2022/05/03 05:27:58;;;;;;;1.30;1.30;;;19.10;38.20;;;;;;5059546;28;20442;-80
2022/05/03 05:30:28;;;;;;;1.40;1.30;;;19.10;38.20;;;;;;5058699;28;20546;-80
2022/05/03 05:32:56;;;;;;;1.93;1.63;;;19.10;38.10;;;;;;5058125;28;20470;-80
2022/05/03 05:35:24;;;;;;;1.60;1.50;;;19.10;38.30;;;;;;5059469;28;20470;-80
2022/05/03 05:37:52;;;;;;;3.00;1.47;;;19.20;38.30;;;;;;5058776;28;20446;-80
2022/05/03 05:40:20;;;;;;;1.50;1.40;;;19.20;38.30;;;;;;5058233;28;20470;-80
2022/05/03 05:42:49;;;;;;;1.53;1.43;;;19.20;38.30;;;;;;5058142;28;20447;-80
2022/05/03 05:45:17;;;;;;;1.50;1.40;;;19.20;38.30;;;;;;5058217;28;20477;-82
2022/05/03 05:47:47;;;;;;;1.30;1.20;;;19.20;38.20;;;;;;5057797;28;20481;-80
2022/05/03 05:50:15;;;;;;;1.40;1.30;;;19.30;38.20;;;;;;5057872;28;20553;-80
2022/05/03 05:55:29;;;;;;;1.50;1.40;;;19.30;38.20;;;;;;5058260;28;20470;-81
2022/05/03 05:57:57;;;;;;;2.00;1.47;;;19.30;38.10;;;;;;5058363;28;20988;-80
2022/05/03 06:00:25;;;;;;;1.30;1.30;;;19.40;38.20;;;;;;5058503;28;20550;-80
2022/05/03 06:02:54;;;;;;;1.47;1.37;;;19.40;38.20;;;;;;5058364;28;20474;-80
2022/05/03 06:05:22;;;;;;;1.57;1.47;;;19.40;38.10;;;;;;5057361;28;20471;-80
2022/05/03 06:07:50;;;;;;;1.93;1.80;;;19.40;38.00;;;;;;5058182;28;20405;-81
2022/05/03 06:10:18;;;;;;;3.77;1.50;;;19.50;38.20;;;;;;5058481;28;20461;-80
2022/05/03 06:12:47;;;;;;;1.73;1.63;;;19.50;38.00;;;;;;5058271;28;20528;-81
2022/05/03 06:15:15;;;;;;;1.60;1.50;;;19.60;38.20;;;;;;5058534;28;20446;-80
2022/05/03 06:17:43;;;;;;;2.63;1.40;;;19.60;38.00;;;;;;5058509;28;20485;-81
2022/05/03 06:20:13;;;;;;;1.67;1.57;;;19.70;37.90;;;;;;5058236;28;20466;-81
2022/05/03 06:22:41;;;;;;;1.70;1.60;;;19.70;37.90;;;;;;5056382;28;20828;-81
2022/05/03 06:25:10;;;;;;;1.87;1.77;;;19.80;38.00;;;;;;5038249;28;20497;-81
2022/05/03 06:27:39;;;;;;;1.80;1.70;;;19.80;37.80;;;;;;5036999;28;20448;-81
2022/05/03 06:30:08;;;;;;;1.90;1.80;;;19.80;37.80;;;;;;5039489;28;20467;-82
2022/05/03 06:32:37;;;;;;;1.50;1.40;;;19.90;37.90;;;;;;5038585;28;20467;-80
2022/05/03 06:35:07;;;;;;;1.70;1.60;;;20.00;37.70;;;;;;5038018;28;20448;-81
2022/05/03 06:37:37;;;;;;;1.50;1.40;;;20.10;37.70;;;;;;5038310;28;20467;-80
2022/05/03 06:40:07;;;;;;;1.90;1.40;;;20.10;37.60;;;;;;5054537;28;20479;-80
2022/05/03 06:42:37;;;;;;;4.00;1.80;;;20.20;37.60;;;;;;5057909;28;20442;-80
2022/05/03 06:45:06;;;;;;;2.80;1.37;;;20.30;37.50;;;;;;5057744;28;20501;-80
2022/05/03 06:47:34;;;;;;;2.00;1.80;;;20.30;37.40;;;;;;5058308;28;20450;-80
2022/05/03 06:50:02;;;;;;;1.30;1.30;;;20.40;37.40;;;;;;5058253;28;20467;-82
2022/05/03 06:52:31;;;;;;;1.50;1.40;;;20.40;37.40;;;;;;5057497;28;20493;-82
2022/05/03 06:55:00;;;;;;;1.73;1.63;;;20.50;37.40;;;;;;5057907;28;20525;-81
2022/05/03 06:57:29;;;;;;;1.40;1.40;;;20.60;37.30;;;;;;5057939;28;20513;-81
2022/05/03 07:00:00;;;;;;;1.33;1.33;;;20.60;37.40;;;;;;5058096;28;20490;-81
2022/05/03 07:02:31;;;;;;;1.47;1.37;;;20.70;37.20;;;;;;5057382;28;20439;-81
2022/05/03 07:05:00;;;;;;;1.80;1.70;;;20.80;37.10;;;;;;5057610;28;20443;-81
2022/05/03 07:07:28;;;;;;;2.40;1.37;;;20.80;37.20;;;;;;5057770;28;20477;-81
2022/05/03 07:09:56;;;;;;;1.67;1.57;;;20.80;37.20;;;;;;5061245;28;20466;-82
2022/05/03 07:12:26;;;;;;;1.83;1.40;;;20.90;37.80;;;;;;5061156;28;20532;-80
2022/05/03 07:14:58;;;;;;;1.67;1.57;;;20.90;37.00;;;;;;5050285;28;20466;-82
2022/05/03 07:23:08;;;;;;;1.50;1.40;;;20.80;37.20;;;;;;5041372;28;20559;-82
2022/05/03 07:25:36;;;;;;;1.67;1.57;;;20.80;37.20;;;;;;5042035;28;20482;-80
2022/05/03 07:28:06;;;;;;;1.87;1.77;;;20.80;37.30;;;;;;5056427;28;20972;-82
2022/05/03 07:30:36;;;;;;;1.80;1.70;;;20.80;37.50;;;;;;5061199;28;20474;-80
2022/05/03 07:33:04;;;;;;;1.60;1.50;;;20.80;37.30;;;;;;5060936;28;20474;-81
2022/05/03 07:35:32;;;;;;;1.30;1.20;;;20.80;37.40;;;;;;5061036;28;20458;-80
2022/05/03 07:38:00;;;;;;;1.70;1.60;;;20.80;37.40;;;;;;5061946;28;20522;-81
2022/05/03 07:40:29;;;;;;;1.30;1.30;;;20.80;37.30;;;;;;5062776;28;20467;-82
2022/05/03 07:42:56;;;;;;;1.53;1.43;;;20.90;37.40;;;;;;5060210;28;20482;-81
2022/05/03 07:45:26;;;;;;;1.93;1.77;;;21.00;37.50;;;;;;5061108;28;20446;-81
2022/05/03 07:47:54;;;;;;;1.90;1.50;;;21.00;37.30;;;;;;5060946;28;20481;-81
2022/05/03 07:50:22;;;;;;;1.70;1.60;;;21.00;37.40;;;;;;5060987;28;20498;-81
2022/05/03 07:52:50;;;;;;;1.70;1.70;;;21.10;37.30;;;;;;5063017;28;20465;-81
2022/05/03 07:55:18;;;;;;;1.73;1.63;;;21.10;37.40;;;;;;5059585;28;20447;-81
2022/05/03 07:57:46;;;;;;;1.60;1.50;;;21.20;37.30;;;;;;5060376;28;20455;-78
2022/05/03 08:00:15;;;;;;;1.80;1.70;;;21.10;37.20;;;;;;5060217;28;20459;-81
2022/05/03 08:02:45;;;;;;;2.17;1.97;;;21.10;37.30;;;;;;5060587;28;20537;-81
2022/05/03 08:05:13;;;;;;;1.87;1.77;;;21.20;37.40;;;;;;5060292;28;20446;-81
2022/05/03 08:07:41;;;;;;;1.60;1.50;;;21.20;37.30;;;;;;5061252;28;20601;-81
2022/05/03 08:10:10;;;;;;;1.63;1.30;;;21.20;37.30;;;;;;5061561;28;20470;-82
2022/05/03 08:12:38;;;;;;;1.70;1.60;;;21.30;37.30;;;;;;5061416;28;20445;-82
2022/05/03 08:15:07;;;;;;;1.80;1.70;;;21.30;37.40;;;;;;5058645;28;20455;-81
2022/05/03 08:17:35;;;;;;;1.90;1.80;;;21.30;37.20;;;;;;5059472;28;20473;-80
2022/05/03 08:20:05;;;;;;;1.80;1.70;;;21.30;37.40;;;;;;5059122;28;20528;-80
2022/05/03 08:22:34;;;;;;;1.60;1.50;;;21.40;37.30;;;;;;5059926;28;20415;-81
2022/05/03 08:25:06;;;;;;;1.90;1.80;;;21.40;37.40;;;;;;5059964;28;20439;-81
2022/05/03 08:27:36;;;;;;;1.80;1.70;;;21.40;37.30;;;;;;5059427;28;20473;-81
2022/05/03 08:30:04;;;;;;;2.03;1.33;;;21.40;37.30;;;;;;5058087;28;20506;-81
2022/05/03 08:32:32;;;;;;;1.57;1.47;;;21.50;37.30;;;;;;5059450;28;20518;-81
2022/05/03 08:35:00;;;;;;;3.33;1.60;;;21.50;37.20;;;;;;5038853;28;20506;-80
2022/05/03 08:43:00;;;;;;;1.47;1.37;;;21.70;37.00;;;;;;5039930;28;20546;-81
2022/05/03 08:45:28;;;;;;;1.40;1.40;;;21.70;37.00;;;;;;5039095;28;20498;-80
2022/05/03 08:47:56;;;;;;;1.90;1.80;;;21.70;37.00;;;;;;5059515;28;20469;-81
2022/05/03 08:50:24;;;;;;;1.57;1.47;;;21.70;37.00;;;;;;5060354;28;20546;-81
2022/05/03 08:52:55;;;;;;;1.43;1.43;;;21.80;37.00;;;;;;5059400;28;20514;-80
2022/05/03 08:55:24;;;;;;;1.60;1.50;;;21.80;37.10;;;;;;5058969;28;20430;-80
2022/05/03 08:57:52;;;;;;;1.73;1.63;;;21.90;37.00;;;;;;5059449;28;20529;-80
2022/05/03 09:00:20;;;;;;;1.60;1.50;;;21.90;36.80;;;;;;5058620;28;20469;-81
2022/05/03 09:02:49;;;;;;;1.83;1.40;;;21.90;36.80;;;;;;5058969;28;20458;-80
2022/05/03 09:05:17;;;;;;;2.10;2.00;;;21.90;36.80;;;;;;5058192;28;20443;-80
2022/05/03 09:07:48;;;;;;;1.80;1.70;;;21.90;36.90;;;;;;5058975;28;20506;-80
2022/05/03 09:10:18;;;;;;;1.70;1.60;;;21.90;37.00;;;;;;5058708;28;20463;-80
2022/05/03 09:12:46;;;;;;;1.77;1.60;;;21.80;37.00;;;;;;5058152;28;20458;-80
2022/05/03 09:15:14;;;;;;;1.73;1.63;;;21.80;37.00;;;;;;5059311;28;20494;-80
2022/05/03 09:17:43;;;;;;;1.90;1.80;;;21.80;37.00;;;;;;5058013;28;20450;-79
2022/05/03 09:25:51;;;;;;;1.60;1.50;;;21.80;37.00;;;;;;5058313;28;20451;-80
2022/05/03 09:28:21;;;;;;;2.20;2.10;;;21.80;37.00;;;;;;5058080;28;20478;-80
2022/05/03 09:30:52;;;;;;;1.50;1.50;;;21.90;37.20;;;;;;5058151;28;20525;-80
2022/05/03 09:33:21;;;;;;;2.20;2.00;;;21.90;37.10;;;;;;5057242;28;20463;-80
2022/05/03 09:35:50;;;;;;;2.33;1.97;;;21.90;37.10;;;;;;5057603;28;20533;-80
2022/05/03 09:38:18;;;;;;;2.10;2.00;;;21.90;37.10;;;;;;5057050;28;20446;-79
2022/05/03 09:40:48;;;;;;;1.93;1.83;;;21.90;37.10;;;;;;5060276;28;20438;-80
2022/05/03 09:43:18;;;;;;;1.93;1.83;;;21.90;37.00;;;;;;5057996;28;20505;-80
2022/05/03 09:45:46;;;;;;;2.63;2.13;;;21.90;36.90;;;;;;5060626;28;20446;-80
2022/05/03 09:48:14;;;;;;;1.87;1.77;;;21.90;37.10;;;;;;5063624;28;20443;-77
2022/05/03 09:50:44;;;;;;;2.00;1.90;;;21.90;37.00;;;;;;5062753;28;20447;-80
2022/05/03 09:53:16;;;;;;;1.87;1.77;;;21.90;37.10;;;;;;5060110;28;20518;-78
2022/05/03 09:55:45;;;;;;;2.10;2.00;;;21.90;37.10;;;;;;5057136;28;20435;-78
2022/05/03 09:58:17;;;;;;;2.67;1.73;;;21.90;37.00;;;;;;5056315;28;20454;-80
2022/05/03 10:00:48;;;;;;;2.20;1.93;;;21.90;37.00;;;;;;5058638;28;20443;-80
2022/05/03 10:03:17;;;;;;;3.03;2.30;;;21.90;36.90;;;;;;5057212;28;20450;-82
2022/05/03 10:05:46;;;;;;;2.27;2.00;;;22.00;37.00;;;;;;5058903;28;20442;-81
2022/05/03 10:08:16;;;;;;;2.30;2.20;;;22.00;36.80;;;;;;5057545;28;20446;-81
2022/05/03 10:10:56;;;;;;;2.30;2.10;;;22.00;36.80;;;;;;5053555;28;20462;-80
2022/05/03 10:13:25;;;;;;;3.83;2.50;;;22.10;36.80;;;;;;5040070;28;20462;-80
2022/05/03 10:21:30;;;;;;;2.30;2.10;;;22.10;36.50;;;;;;5045321;28;20431;-80
2022/05/03 10:24:02;;;;;;;2.60;2.40;;;22.20;36.60;;;;;;5039376;28;20490;-81
2022/05/03 10:26:53;;;;;;;2.37;2.00;;;22.20;36.50;;;;;;5058505;28;20449;-80
2022/05/03 10:29:21;;;;;;;3.37;2.40;;;22.20;36.40;;;;;;5057209;28;20538;-80
2022/05/03 10:31:59;;;;;;;2.43;2.23;;;22.20;36.30;;;;;;5057649;28;20554;-80
2022/05/03 10:34:56;;;;;;;3.37;2.50;;;22.30;36.30;;;;;;5050114;28;20477;-81
2022/05/03 10:38:01;;;;;;;4.13;2.70;;;22.40;36.30;;;;;;5055641;28;20533;-81
2022/05/03 10:40:31;;;;;;;3.03;2.27;;;22.40;36.30;;;;;;5058769;28;20525;-80
2022/05/03 10:43:06;;;;;;;2.40;2.20;;;22.40;36.30;;;;;;5058136;28;20462;-80
2022/05/03 10:45:48;;;;;;;2.30;2.10;;;22.40;36.10;;;;;;5063067;28;20457;-82
2022/05/03 10:48:26;;;;;;;4.47;2.00;;;22.50;36.10;;;;;;5042955;28;20467;-81
2022/05/03 10:50:54;;;;;;;4.60;2.00;;;22.50;36.10;;;;;;5050830;28;20491;-80
2022/05/03 10:53:33;;;;;;;3.13;2.10;;;22.40;36.00;;;;;;5043472;28;20510;-81
2022/05/03 10:56:09;;;;;;;3.30;2.30;;;22.50;36.10;;;;;;5058398;28;20557;-81
2022/05/03 10:58:38;;;;;;;2.30;1.90;;;22.60;36.00;;;;;;5055411;28;20490;-80
2022/05/03 11:01:18;;;;;;;2.50;2.30;;;22.70;35.90;;;;;;5064706;28;20465;-81
2022/05/03 11:04:10;;;;;;;3.43;2.23;;;22.70;35.90;;;;;;5051142;28;20878;-80
2022/05/03 11:06:40;;;;;;;3.13;2.43;;;22.80;35.80;;;;;;5058167;28;20446;-81
2022/05/03 11:09:15;;;;;;;3.67;2.20;;;22.80;35.80;;;;;;5064557;28;20557;-80
2022/05/03 11:12:10;;;;;;;4.23;2.50;;;22.80;36.00;;;;;;5059439;28;20454;-79
2022/05/03 11:14:54;;;;;;;4.50;2.33;;;22.90;35.90;;;;;;5052035;28;20489;-81
2022/05/03 11:17:23;;;;;;;3.10;2.27;;;22.90;35.90;;;;;;5048654;28;20411;-79
2022/05/03 11:20:01;;;;;;;2.90;2.00;;;23.00;36.20;;;;;;5049881;28;20458;-79
2022/05/03 11:22:35;;;;;;;3.00;2.40;;;23.10;36.00;;;;;;5061536;28;20525;-78
2022/05/03 11:25:13;;;;;;;4.13;1.93;;;23.10;35.90;;;;;;5050999;28;20426;-80
2022/05/03 11:27:41;;;;;;;4.30;2.13;;;23.20;36.10;;;;;;5039017;28;20456;-80
2022/05/03 11:30:16;;;;;;;6.30;2.53;;;23.30;36.10;;;;;;5041301;28;20559;-80
2022/05/03 11:32:44;;;;;;;2.80;2.20;;;23.70;36.40;;;;;;5053441;28;20446;-79
2022/05/03 11:35:14;;;;;;;2.37;2.17;;;25.10;37.20;;;;;;5060048;28;20476;-79
2022/05/03 11:37:47;;;;;;;5.57;2.13;;;25.40;34.00;;;;;;5062972;28;20401;-79
2022/05/03 11:40:16;;;;;;;3.00;2.47;;;25.50;33.70;;;;;;5061056;28;20537;-79
2022/05/03 11:42:46;;;;;;;2.73;2.20;;;25.70;33.90;;;;;;5061662;28;20488;-80
2022/05/03 11:45:15;;;;;;;2.20;2.00;;;26.60;34.00;;;;;;5061676;28;20412;-80
2022/05/03 11:47:44;;;;;;;3.57;2.13;;;26.70;32.40;;;;;;5061891;28;20428;-79
2022/05/03 11:55:58;;;;;;;3.57;2.50;;;26.60;32.30;;;;;;5060527;28;20500;-79
2022/05/03 11:56:00;;;;;;;2.70;2.17;;;26.10;33.00;;;;;;5048217;28;20491;-79
2022/05/03 11:58:32;;;;;;;6.20;2.40;;;26.40;33.50;;;;;;5042358;28;20478;-79
2022/05/03 12:01:00;;;;;;;2.73;2.13;;;26.30;32.80;;;;;;5041588;28;20470;-78
2022/05/03 12:03:28;;;;;;;2.90;2.00;;;26.40;32.90;;;;;;5060781;28;20429;-78
2022/05/03 12:06:04;;;;;;;2.23;2.00;;;26.20;33.10;;;;;;5041657;28;20462;-78
2022/05/03 12:08:34;;;;;;;3.27;2.40;;;26.30;33.60;;;;;;5049478;28;20840;-79
2022/05/03 12:11:02;;;;;;;4.90;2.20;;;26.50;33.20;;;;;;5061410;28;20445;-79
2022/05/03 12:13:31;;;;;;;2.70;2.30;;;26.60;33.00;;;;;;5060544;28;20439;-79
2022/05/03 12:16:11;;;;;;;2.43;2.07;;;26.80;33.50;;;;;;5060589;28;20470;-80
2022/05/03 12:18:40;;;;;;;3.30;2.20;;;26.70;32.70;;;;;;5058762;28;20462;-78
2022/05/03 12:21:11;;;;;;;2.47;2.27;;;26.60;32.70;;;;;;5060197;28;20937;-78
2022/05/03 12:23:41;;;;;;;2.70;1.77;;;26.30;32.90;;;;;;5061568;28;20424;-79
2022/05/03 12:26:18;;;;;;;9.13;2.20;;;26.10;33.50;;;;;;5046452;28;20497;-79
2022/05/03 12:28:46;;;;;;;4.30;2.33;;;25.90;33.90;;;;;;5045736;28;20470;-78
2022/05/03 12:31:17;;;;;;;3.20;2.10;;;25.80;34.20;;;;;;5042766;28;20409;-78
2022/05/03 12:33:48;;;;;;;4.17;2.30;;;25.80;34.50;;;;;;5060213;28;20420;-78
2022/05/03 12:36:31;;;;;;;3.70;2.20;;;25.90;34.20;;;;;;5041903;28;20517;-78
2022/05/03 12:39:12;;;;;;;3.63;2.20;;;25.90;34.00;;;;;;5048138;28;20433;-79
2022/05/03 12:41:54;;;;;;;3.73;2.40;;;26.00;34.20;;;;;;5059864;28;20445;-80
2022/05/03 12:44:23;;;;;;;2.20;2.07;;;26.50;34.00;;;;;;5059652;28;20416;-79
2022/05/03 12:46:51;;;;;;;4.13;2.10;;;26.50;33.30;;;;;;5060287;28;20503;-80
2022/05/03 12:49:21;;;;;;;2.10;1.80;;;26.30;33.30;;;;;;5047060;28;20445;-79
2022/05/03 12:51:51;;;;;;;3.00;2.10;;;26.10;33.70;;;;;;5059368;28;20459;-79
2022/05/03 12:54:19;;;;;;;3.30;2.10;;;25.90;34.10;;;;;;5051667;28;20527;-79
2022/05/03 12:59:32;;;;;;;2.83;1.93;;;25.70;34.60;;;;;;5039349;28;20521;-79
2022/05/03 13:02:01;;;;;;;2.50;1.90;;;25.70;34.70;;;;;;5049719;28;20516;-79
2022/05/03 13:04:30;;;;;;;2.40;2.20;;;25.60;34.70;;;;;;5044630;28;20459;-79
2022/05/03 13:07:00;;;;;;;4.03;2.00;;;25.60;34.90;;;;;;5037865;28;20493;-79
2022/05/03 13:09:30;;;;;;;3.57;2.07;;;25.50;35.00;;;;;;5038622;28;20532;-79
2022/05/03 13:11:58;;;;;;;2.10;1.90;;;25.50;35.10;;;;;;5038449;28;20490;-79
2022/05/03 13:14:28;;;;;;;3.20;2.27;;;25.50;35.00;;;;;;5048983;28;20421;-79
2022/05/03 13:16:57;;;;;;;3.13;2.60;;;25.50;35.00;;;;;;5058304;28;20475;-80
2022/05/03 13:19:25;;;;;;;2.93;2.27;;;25.40;35.10;;;;;;5057225;28;20445;-80
2022/05/03 13:21:54;;;;;;;2.20;1.60;;;25.40;35.10;;;;;;5060121;28;20489;-79
2022/05/03 13:24:23;;;;;;;2.30;2.10;;;25.40;35.20;;;;;;5059721;28;20912;-79
2022/05/03 13:26:51;;;;;;;5.47;2.00;;;25.50;35.30;;;;;;5060200;28;20481;-79
2022/05/03 13:29:20;;;;;;;8.70;2.20;;;25.60;35.20;;;;;;5063538;28;20471;-80
2022/05/03 13:31:48;;;;;;;6.30;2.20;;;25.60;35.10;;;;;;5065233;28;20421;-79
2022/05/03 13:34:16;;;;;;;2.70;2.10;;;25.70;35.00;;;;;;5062896;28;20447;-80
2022/05/03 13:42:20;;;;;;;2.07;1.73;;;25.80;35.00;;;;;;5036664;28;20449;-79
2022/05/03 13:44:48;;;;;;;2.50;2.27;;;26.10;34.80;;;;;;5048119;28;20448;-80
2022/05/03 13:47:16;;;;;;;5.43;2.33;;;26.30;34.30;;;;;;5066682;28;20441;-80
2022/05/03 13:49:44;;;;;;;2.43;2.07;;;26.30;34.10;;;;;;5066674;28;20475;-80
2022/05/03 13:52:12;;;;;;;3.43;1.97;;;26.20;34.10;;;;;;5065899;28;20449;-80
2022/05/03 13:54:42;;;;;;;2.00;1.90;;;26.10;34.30;;;;;;5058162;28;20430;-80